Time;durP1;ratioP1;P1;durP2;ratioP2;P2;SDS_P1;SDS_P2;PMS_P1;PMS_P2;Temp;Humidity;BMP_temperature;BMP_pressure;BME280_temperature;BME280_humidity;BME280_pressure;Samples;Min_cycle;Max_cycle;Signal;HPM_P1;HPM_P2
2021/03/06 00:00:35;94042.00;0.31;163.29;0.00;0.00;0.62;;;;;6.60;1.00;;;;;;2276525;61;1047;-87
2021/03/06 00:03:04;0.00;0.00;0.62;0.00;0.00;0.62;;;;;7.10;1.00;;;;;;2276523;61;1096;-87
2021/03/06 00:05:30;48869.00;0.16;85.23;0.00;0.00;0.62;;;;;7.20;1.00;;;;;;2276489;61;994;-87
2021/03/06 00:07:57;14394.00;0.05;25.56;0.00;0.00;0.62;;;;;7.50;1.00;;;;;;2276546;61;1401;-87
2021/03/06 00:10:25;34616.00;0.12;60.57;0.00;0.00;0.62;;;;;7.30;1.00;;;;;;2276270;61;1129;-86
2021/03/06 00:12:51;1405.00;0.00;3.06;0.00;0.00;0.62;;;;;6.70;1.00;;;;;;2271900;61;976;-86
2021/03/06 00:15:21;67131.00;0.22;116.80;0.00;0.00;0.62;;;;;6.30;1.00;;;;;;2271714;61;1591;-85
2021/03/06 00:17:48;167679.00;0.56;290.27;0.00;0.00;0.62;;;;;5.90;1.00;;;;;;2271944;61;2001;-85
2021/03/06 00:20:15;741.00;0.00;1.90;0.00;0.00;0.62;;;;;6.00;1.00;;;;;;2271918;61;1497;-85
2021/03/06 00:22:42;0.00;0.00;0.62;0.00;0.00;0.62;;;;;6.10;1.00;;;;;;2268583;61;1017;-85
2021/03/06 00:25:11;0.00;0.00;0.62;0.00;0.00;0.62;;;;;6.00;1.00;;;;;;2271914;61;1029;-86
2021/03/06 00:27:38;267708.00;0.89;462.40;79981.00;0.27;139.00;;;;;6.10;1.00;;;;;;2264962;61;1073;-86
2021/03/06 00:30:07;258714.00;0.86;446.94;77521.00;0.26;134.75;;;;;6.10;1.00;;;;;;2272579;61;1672;-85
2021/03/06 00:32:33;185816.00;0.62;321.50;93893.00;0.31;163.03;;;;;6.20;1.00;;;;;;2271645;61;1006;-86
2021/03/06 00:35:00;179101.00;0.60;309.94;84838.00;0.28;147.39;;;;;6.70;1.00;;;;;;2271884;61;937;-87
2021/03/06 00:37:27;179026.00;0.60;309.81;84377.00;0.28;146.60;;;;;6.40;1.00;;;;;;2271490;61;2016;-86
2021/03/06 00:39:54;176412.00;0.59;305.31;87183.00;0.29;151.44;;;;;6.20;1.00;;;;;;2271879;61;1310;-86
2021/03/06 00:42:20;168753.00;0.56;292.12;82351.00;0.27;143.10;;;;;6.50;1.00;;;;;;2271930;61;1091;-86
2021/03/06 00:44:47;168589.00;0.56;291.84;84021.00;0.28;145.98;;;;;7.10;1.00;;;;;;2271852;61;1117;-87
2021/03/06 00:47:13;294606.00;0.98;508.65;85578.00;0.29;148.67;;;;;7.80;1.00;;;;;;2271788;61;1887;-87
2021/03/06 00:49:40;202807.00;0.68;350.76;81005.00;0.27;140.77;;;;;8.30;1.00;;;;;;2272284;61;1314;-87
2021/03/06 00:52:07;278614.00;0.93;481.15;79579.00;0.27;138.31;;;;;8.50;1.00;;;;;;2276395;61;1116;-86
2021/03/06 00:54:34;197984.00;0.66;342.45;86262.00;0.29;149.85;;;;;8.70;1.00;;;;;;2276269;61;1603;-86
2021/03/06 00:57:01;182066.00;0.61;315.05;80282.00;0.27;139.52;;;;;9.00;1.00;;;;;;2276359;61;1924;-86
2021/03/06 00:59:27;299944.00;1.00;517.82;102829.00;0.34;178.45;;;;;9.30;1.00;;;;;;2276240;61;1287;-86
2021/03/06 01:01:54;267881.00;0.89;462.70;61783.00;0.21;107.56;;;;;9.10;1.00;;;;;;2276311;61;1017;-86
2021/03/06 01:04:20;210335.00;0.70;363.71;85224.00;0.28;148.06;;;;;8.60;1.00;;;;;;2276253;61;1746;-86
2021/03/06 01:06:46;266631.00;0.89;460.55;90791.00;0.30;157.67;;;;;9.00;1.00;;;;;;2276271;61;1967;-86
2021/03/06 01:09:13;34037.00;0.11;59.57;0.00;0.00;0.62;;;;;9.10;1.00;;;;;;2276282;61;1363;-86
2021/03/06 01:11:40;171960.00;0.57;297.64;0.00;0.00;0.62;;;;;9.00;1.00;;;;;;2276296;61;2008;-85
2021/03/06 01:14:07;3912.00;0.01;7.40;0.00;0.00;0.62;;;;;9.10;1.00;;;;;;2276327;61;1308;-85
2021/03/06 01:16:33;0.00;0.00;0.62;0.00;0.00;0.62;;;;;9.40;1.00;;;;;;2276331;61;1111;-85
2021/03/06 01:19:00;20411.00;0.07;35.98;0.00;0.00;0.62;;;;;9.50;1.00;;;;;;2276278;61;2009;-87
2021/03/06 01:21:26;158075.00;0.53;273.72;19552.00;0.07;34.49;;;;;9.50;1.00;;;;;;2276344;61;1004;-85
2021/03/06 01:23:53;76768.00;0.26;133.45;0.00;0.00;0.62;;;;;9.30;1.00;;;;;;2276299;61;1742;-85
2021/03/06 01:26:19;78170.00;0.26;135.88;0.00;0.00;0.62;;;;;9.30;1.00;;;;;;2276298;61;1071;-86
2021/03/06 01:28:47;87111.00;0.29;151.32;8983.00;0.03;16.19;;;;;9.40;1.00;;;;;;2276304;61;1407;-86
2021/03/06 01:31:13;146508.00;0.49;253.79;0.00;0.00;0.62;;;;;9.40;1.00;;;;;;2276226;61;1750;-85
2021/03/06 01:33:40;112298.00;0.37;194.80;0.00;0.00;0.62;;;;;9.50;1.00;;;;;;2276296;61;1016;-85
2021/03/06 01:36:07;0.00;0.00;0.62;0.00;0.00;0.62;;;;;9.60;1.00;;;;;;2276303;61;986;-85
2021/03/06 01:38:33;84513.00;0.28;146.83;0.00;0.00;0.62;;;;;9.70;1.00;;;;;;2276211;61;1998;-86
2021/03/06 01:41:00;0.00;0.00;0.62;0.00;0.00;0.62;;;;;9.70;1.00;;;;;;2276229;61;1063;-86
2021/03/06 01:43:27;0.00;0.00;0.62;0.00;0.00;0.62;;;;;9.90;1.00;;;;;;2276171;61;1145;-86
2021/03/06 01:45:54;40747.00;0.14;71.18;0.00;0.00;0.62;;;;;9.80;1.00;;;;;;2276273;61;900;-86
2021/03/06 01:48:20;90469.00;0.30;157.12;0.00;0.00;0.62;;;;;9.80;1.00;;;;;;2276198;61;1378;-86
2021/03/06 01:50:47;21524.00;0.07;37.91;0.00;0.00;0.62;;;;;9.50;1.00;;;;;;2276184;61;1690;-85
2021/03/06 01:53:15;9704.00;0.03;17.44;0.00;0.00;0.62;;;;;9.40;1.00;;;;;;2276213;61;1044;-86
2021/03/06 01:55:44;82180.00;0.27;142.80;0.00;0.00;0.62;;;;;9.20;1.00;;;;;;2276229;61;1156;-86
2021/03/06 01:58:11;12526.00;0.04;22.33;0.00;0.00;0.62;;;;;9.60;1.00;;;;;;2276105;61;1924;-86
2021/03/06 02:00:38;33625.00;0.11;58.86;0.00;0.00;0.62;;;;;9.40;1.00;;;;;;2276181;61;911;-85
2021/03/06 02:03:05;741.00;0.00;1.90;0.00;0.00;0.62;;;;;9.40;1.00;;;;;;2276214;61;1106;-86
2021/03/06 02:05:32;62582.00;0.21;108.94;0.00;0.00;0.62;;;;;9.20;1.00;;;;;;2276145;61;2056;-86
2021/03/06 02:07:58;54166.00;0.18;94.39;0.00;0.00;0.62;;;;;9.30;1.00;;;;;;2276111;61;1387;-85
2021/03/06 02:10:30;0.00;0.00;0.62;0.00;0.00;0.62;;;;;9.30;1.00;;;;;;2276494;61;1017;-85
2021/03/06 02:13:08;46175.00;0.15;80.57;0.00;0.00;0.62;;;;;9.70;1.00;;;;;;2276889;61;936;-85
2021/03/06 02:15:48;148617.00;0.50;257.42;15082.00;0.05;26.75;;;;;10.00;1.00;;;;;;2276903;61;1058;-86
2021/03/06 02:18:22;0.00;0.00;0.62;0.00;0.00;0.62;;;;;10.20;1.00;;;;;;2276825;61;1981;-86
2021/03/06 02:20:52;0.00;0.00;0.62;0.00;0.00;0.62;;;;;9.90;1.00;;;;;;2276887;61;1130;-86
2021/03/06 02:24:07;18610.00;0.06;32.86;0.00;0.00;0.62;;;;;10.00;1.00;;;;;;2276901;61;1045;-85
2021/03/06 02:26:50;17606.00;0.06;31.12;0.00;0.00;0.62;;;;;8.90;1.00;;;;;;2264243;61;1736;-87
2021/03/06 02:29:44;5568.00;0.02;10.27;0.00;0.00;0.62;;;;;8.90;1.00;;;;;;2275696;61;1301;-87
2021/03/06 02:32:17;222346.00;0.74;384.38;84655.00;0.28;147.08;;;;;8.50;1.00;;;;;;2276812;61;1043;-86
2021/03/06 02:34:55;190208.00;0.63;329.07;81741.00;0.27;142.04;;;;;8.20;1.00;;;;;;2276844;61;967;-87
2021/03/06 02:37:24;394686.00;1.32;680.67;80091.00;0.27;139.19;;;;;8.60;1.00;;;;;;2276843;61;1911;-87
2021/03/06 02:39:55;254767.00;0.85;440.15;91108.00;0.30;158.22;;;;;9.00;1.00;;;;;;2276796;61;1397;-87
2021/03/06 02:42:24;418389.00;1.39;721.42;86813.00;0.29;150.80;;;;;8.60;1.00;;;;;;2276821;61;1036;-86
2021/03/06 02:44:52;509674.00;1.70;878.48;87181.00;0.29;151.44;;;;;9.00;1.00;;;;;;2276771;61;1526;-84
2021/03/06 02:47:20;472435.00;1.57;814.38;81935.00;0.27;142.38;;;;;9.10;1.00;;;;;;2276772;61;1042;-86
2021/03/06 02:49:51;458553.00;1.53;790.50;87500.00;0.29;151.99;;;;;7.80;1.00;;;;;;2276745;61;1714;-86
2021/03/06 02:52:18;483902.00;1.61;834.11;85440.00;0.28;148.43;;;;;7.10;1.00;;;;;;2276808;61;1026;-88
2021/03/06 02:54:45;377393.00;1.26;650.94;85651.00;0.29;148.80;;;;;7.50;1.00;;;;;;2276766;61;1646;-87
2021/03/06 02:57:26;431448.00;1.44;743.88;86182.00;0.29;149.71;;;;;8.00;1.00;;;;;;2276769;61;1917;-88
2021/03/06 03:00:05;333869.00;1.11;576.14;0.00;0.00;0.62;;;;;8.70;1.00;;;;;;2276745;61;1405;-86
2021/03/06 03:02:43;392319.00;1.31;676.60;90047.00;0.30;156.39;;;;;9.20;1.00;;;;;;2276768;61;1054;-85
2021/03/06 03:05:20;396668.00;1.32;684.08;80758.00;0.27;140.35;;;;;9.50;1.00;;;;;;2276777;61;1710;-86
2021/03/06 03:07:53;374942.00;1.25;646.73;77735.00;0.26;135.12;;;;;9.60;1.00;;;;;;2276772;61;1082;-86
2021/03/06 03:10:23;511494.00;1.70;881.62;81820.00;0.27;142.18;;;;;9.60;1.00;;;;;;2276686;61;1749;-85
2021/03/06 03:12:56;352572.00;1.18;608.28;88273.00;0.29;153.33;;;;;9.70;1.00;;;;;;2276733;61;1017;-86
2021/03/06 03:15:29;345394.00;1.15;595.94;87848.00;0.29;152.59;;;;;9.90;1.00;;;;;;2276735;61;1085;-86
2021/03/06 03:17:58;466108.00;1.55;803.49;78279.00;0.26;136.06;;;;;10.00;1.00;;;;;;2276695;61;1906;-86
2021/03/06 03:20:31;330695.00;1.10;570.68;89860.00;0.30;156.07;;;;;9.70;1.00;;;;;;2276688;61;1062;-86
2021/03/06 03:23:02;377704.00;1.26;651.48;88617.00;0.30;153.92;;;;;9.80;1.00;;;;;;2276561;61;1611;-85
2021/03/06 03:25:31;440327.00;1.47;759.15;77949.00;0.26;135.49;;;;;9.80;1.00;;;;;;2276713;61;1005;-85
2021/03/06 03:27:59;388195.00;1.29;669.51;80996.00;0.27;140.76;;;;;9.80;1.00;;;;;;2276622;61;1410;-84
2021/03/06 03:30:26;361330.00;1.20;623.33;81078.00;0.27;140.90;;;;;9.70;1.00;;;;;;2276666;61;1131;-85
2021/03/06 03:32:55;81279.00;0.27;141.25;0.00;0.00;0.62;;;;;9.50;1.00;;;;;;2276639;61;1167;-85
2021/03/06 03:35:25;106975.00;0.36;185.61;0.00;0.00;0.62;;;;;9.50;1.00;;;;;;2276591;61;1747;-84
2021/03/06 03:37:54;32836.00;0.11;57.49;0.00;0.00;0.62;;;;;9.50;1.00;;;;;;2276605;61;2008;-85
2021/03/06 03:40:23;0.00;0.00;0.62;0.00;0.00;0.62;;;;;9.00;1.00;;;;;;2276643;61;1105;-86
2021/03/06 03:42:50;0.00;0.00;0.62;0.00;0.00;0.62;;;;;8.60;1.00;;;;;;2276606;61;1077;-87
2021/03/06 03:45:20;162698.00;0.54;281.69;14909.00;0.05;26.45;;;;;7.90;1.00;;;;;;2276542;61;1751;-86
2021/03/06 03:47:46;295216.00;0.98;509.70;83603.00;0.28;145.26;;;;;6.50;1.00;;;;;;2276564;61;1043;-86
2021/03/06 03:50:15;70016.00;0.23;121.79;0.00;0.00;0.62;;;;;4.70;1.00;;;;;;2276464;61;1745;-85
2021/03/06 03:52:46;52923.00;0.18;92.24;0.00;0.00;0.62;;;;;3.30;1.00;;;;;;2276486;61;1853;-86
2021/03/06 03:55:13;0.00;0.00;0.62;88882.00;0.30;154.38;;;;;2.20;1.00;;;;;;2276511;61;1618;-87
2021/03/06 03:57:40;117898720.00;393.00;66383596.00;0.00;0.00;0.62;;;;;1.60;1.00;;;;;;2276561;61;1989;-86
2021/03/06 04:00:10;117128112.00;390.43;65089256.00;0.00;0.00;0.62;;;;;1.70;1.00;;;;;;2276540;61;1694;-86
2021/03/06 04:02:37;236893.00;0.79;409.41;101017.00;0.34;175.33;;;;;2.10;1.00;;;;;;2276564;61;900;-86
2021/03/06 04:05:04;187193.00;0.62;323.88;89843.00;0.30;156.04;;;;;2.30;1.00;;;;;;2276463;61;1097;-86
2021/03/06 04:07:40;109959.00;0.37;190.76;0.00;0.00;0.62;;;;;2.20;1.00;;;;;;2276509;61;1710;-86
2021/03/06 04:10:10;126941224.00;423.14;82876496.00;126724624.00;422.42;82452560.00;;;;;1.90;1.00;;;;;;2276560;61;1339;-86
2021/03/06 04:12:36;358752.00;1.20;618.90;91351.00;0.30;158.64;;;;;1.50;1.00;;;;;;2276449;61;1719;-86
2021/03/06 04:15:03;511231.00;1.70;881.16;87058.00;0.29;151.23;;;;;1.50;1.00;;;;;;2276490;61;1267;-85
2021/03/06 04:17:30;337629.00;1.13;582.60;93720.00;0.31;162.73;;;;;1.50;1.00;;;;;;2276481;61;1990;-86
2021/03/06 04:19:56;310549.00;1.04;536.05;89146.00;0.30;154.83;;;;;1.70;1.00;;;;;;2276496;61;1311;-86
2021/03/06 04:22:23;299045.00;1.00;516.28;83155.00;0.28;144.49;;;;;1.60;1.00;;;;;;2276521;61;1052;-86
2021/03/06 04:24:49;268284.00;0.89;463.39;85303.00;0.28;148.20;;;;;1.40;1.00;;;;;;2276419;61;1544;-85
2021/03/06 04:27:17;378490.00;1.26;652.83;77349.00;0.26;134.46;;;;;1.10;1.00;;;;;;2276408;61;1560;-86
2021/03/06 04:29:43;326250.00;1.09;563.04;92905.00;0.31;161.32;;;;;1.00;1.00;;;;;;2276425;61;1328;-86
2021/03/06 04:32:09;238472.00;0.79;412.12;88963.00;0.30;154.52;;;;;1.30;1.00;;;;;;2276436;61;1095;-86
2021/03/06 04:34:36;355459.00;1.18;613.24;93685.00;0.31;162.67;;;;;1.10;1.00;;;;;;2276143;61;1110;-85
2021/03/06 04:37:02;221876.00;0.74;383.57;88747.00;0.30;154.14;;;;;1.00;1.00;;;;;;2276319;61;1918;-85
2021/03/06 04:39:29;192026.00;0.64;332.20;88255.00;0.29;153.29;;;;;1.50;1.00;;;;;;2276278;61;1551;-86
2021/03/06 04:41:55;235999.00;0.79;407.87;96299.00;0.32;167.18;;;;;1.30;1.00;;;;;;2276445;61;983;-86
2021/03/06 04:44:23;240968.00;0.80;416.42;95855.00;0.32;166.42;;;;;1.00;1.00;;;;;;2276346;61;1582;-86
2021/03/06 04:46:49;198688.00;0.66;343.67;93115.00;0.31;161.69;;;;;0.70;1.00;;;;;;2276342;61;1129;-87
2021/03/06 04:49:16;208783.00;0.70;361.04;90461.00;0.30;157.10;;;;;0.80;1.00;;;;;;2276370;61;1284;-86
2021/03/06 04:51:42;295018.00;0.98;509.36;95037.00;0.32;165.00;;;;;1.70;1.00;;;;;;2276382;61;1540;-86
2021/03/06 04:54:09;185879.00;0.62;321.61;85608.00;0.29;148.72;;;;;2.80;1.00;;;;;;2276398;61;1077;-84
2021/03/06 04:56:36;215377.00;0.72;372.39;82919.00;0.28;144.08;;;;;3.60;1.00;;;;;;2276374;61;1102;-85
2021/03/06 04:59:02;275923.00;0.92;476.53;108926.00;0.36;188.98;;;;;3.60;1.00;;;;;;2276234;61;2013;-85
2021/03/06 05:01:30;169825.00;0.57;293.97;85592.00;0.29;148.70;;;;;3.70;1.00;;;;;;2276371;61;951;-84
2021/03/06 05:03:56;202892.00;0.68;350.90;104480.00;0.35;181.30;;;;;4.00;1.00;;;;;;2276347;61;1093;-84
2021/03/06 05:06:23;325105.00;1.08;561.07;143718.00;0.48;248.98;;;;;3.40;1.00;;;;;;2276305;61;1435;-86
2021/03/06 05:08:49;169677.00;0.57;293.71;93116.00;0.31;161.69;;;;;2.70;1.00;;;;;;2276373;61;1293;-86
2021/03/06 05:11:15;469999.00;1.57;810.19;111905.00;0.37;194.12;;;;;2.30;1.00;;;;;;2276316;61;1670;-86
2021/03/06 05:13:42;218978.00;0.73;378.59;92093.00;0.31;159.92;;;;;2.10;1.00;;;;;;2276303;61;1638;-86
2021/03/06 05:16:08;24255.00;0.08;42.64;87806.00;0.29;152.52;;;;;1.70;1.00;;;;;;2276362;61;1151;-86
2021/03/06 05:18:36;116856736.00;389.52;64637492.00;87590.00;0.29;152.15;;;;;1.70;1.00;;;;;;2276297;61;1994;-86
2021/03/06 05:21:03;0.00;0.00;0.62;0.00;0.00;0.62;;;;;1.20;1.00;;;;;;2276349;61;1050;-87
2021/03/06 05:23:29;0.00;0.00;0.62;0.00;0.00;0.62;;;;;1.30;1.00;;;;;;2276287;61;1145;-87
2021/03/06 05:25:56;91043.00;0.30;158.11;0.00;0.00;0.62;;;;;1.60;1.00;;;;;;2276319;61;1621;-87
2021/03/06 05:28:23;139156.00;0.46;241.12;0.00;0.00;0.62;;;;;1.60;1.00;;;;;;2276267;61;1355;-86
2021/03/06 05:30:52;50794.00;0.17;88.56;0.00;0.00;0.62;;;;;1.50;1.00;;;;;;2276275;61;1085;-86
2021/03/06 05:33:19;228751.00;0.76;395.40;90105.00;0.30;156.49;;;;;1.10;1.00;;;;;;2276223;61;1146;-87
2021/03/06 05:35:46;312787.00;1.04;539.90;127033.00;0.42;220.21;;;;;1.00;1.00;;;;;;2276308;61;1059;-86
2021/03/06 05:38:13;40051.00;0.13;69.98;0.00;0.00;0.62;;;;;1.20;1.00;;;;;;2276154;61;1911;-87
2021/03/06 05:40:42;35979.00;0.12;62.93;0.00;0.00;0.62;;;;;1.30;1.00;;;;;;2276294;61;1312;-86
2021/03/06 05:43:09;195447.00;0.65;338.09;95999.00;0.32;166.67;;;;;0.90;1.00;;;;;;2276235;61;1598;-87
2021/03/06 05:45:36;192209.00;0.64;332.51;94235.00;0.31;163.62;;;;;0.60;1.00;;;;;;2276654;61;1021;-85
2021/03/06 05:48:03;181787.00;0.61;314.57;87760.00;0.29;152.44;;;;;0.30;1.00;;;;;;2276897;61;1319;-84
2021/03/06 05:50:31;194853.00;0.65;337.06;91713.00;0.31;159.27;;;;;0.30;1.00;;;;;;2276929;61;1071;-84
2021/03/06 05:52:59;247533.00;0.83;427.71;83227.00;0.28;144.61;;;;;-0.10;1.00;;;;;;2276956;61;1076;-84
2021/03/06 05:55:27;226703.00;0.76;391.88;96658.00;0.32;167.80;;;;;-0.10;1.00;;;;;;2276945;61;885;-84
2021/03/06 05:57:55;49334.00;0.16;86.03;0.00;0.00;0.62;;;;;0.10;1.00;;;;;;2276892;61;1915;-84
2021/03/06 06:00:23;65949.00;0.22;114.76;0.00;0.00;0.62;;;;;0.00;1.00;;;;;;2276896;61;1102;-84
2021/03/06 06:02:54;1622.00;0.01;3.43;0.00;0.00;0.62;;;;;0.10;1.00;;;;;;2276907;61;1104;-84
2021/03/06 06:05:21;247307.00;0.82;427.32;88011.00;0.29;152.87;;;;;0.10;1.00;;;;;;2276910;61;1082;-85
2021/03/06 06:07:50;207540.00;0.69;358.90;89787.00;0.30;155.94;;;;;0.10;1.00;;;;;;2276815;61;1037;-84
2021/03/06 06:10:17;304435.00;1.01;525.54;86293.00;0.29;149.91;;;;;0.20;1.00;;;;;;2276851;61;1348;-84
2021/03/06 06:12:45;267514.00;0.89;462.07;92114.00;0.31;159.96;;;;;0.20;1.00;;;;;;2276849;61;1617;-85
2021/03/06 06:15:13;174522.00;0.58;302.06;92628.00;0.31;160.85;;;;;0.20;1.00;;;;;;2276858;61;1359;-85
2021/03/06 06:17:40;271422.00;0.90;468.79;92475.00;0.31;160.58;;;;;0.20;1.00;;;;;;2276807;61;2001;-85
2021/03/06 06:20:08;299324.00;1.00;516.76;84111.00;0.28;146.14;;;;;0.10;1.00;;;;;;2276853;61;1384;-84
2021/03/06 06:22:35;425608.00;1.42;733.83;123542.00;0.41;214.19;;;;;0.20;1.00;;;;;;2276843;61;1080;-84
2021/03/06 06:25:02;226178.00;0.75;390.97;100934.00;0.34;175.18;;;;;0.30;1.00;;;;;;2276884;61;1157;-85
2021/03/06 06:27:31;231872.00;0.77;400.77;89570.00;0.30;155.57;;;;;0.60;1.00;;;;;;2276902;61;1138;-84
2021/03/06 06:29:59;310468.00;1.03;535.91;87288.00;0.29;151.62;;;;;0.80;1.00;;;;;;2276833;61;1441;-84
2021/03/06 06:32:27;317261.00;1.06;547.59;92231.00;0.31;160.16;;;;;0.90;1.00;;;;;;2276858;61;989;-85
2021/03/06 06:35:00;292770.00;0.98;505.49;89635.00;0.30;155.68;;;;;0.90;1.00;;;;;;2276742;61;1727;-85
2021/03/06 06:37:27;443630.00;1.48;764.83;91197.00;0.30;158.37;;;;;0.50;1.00;;;;;;2276781;61;1921;-85
2021/03/06 06:39:53;418173.00;1.39;721.05;99821.00;0.33;173.26;;;;;0.50;1.00;;;;;;2276812;61;1297;-86
2021/03/06 06:42:30;269796.00;0.90;465.99;89445.00;0.30;155.35;;;;;0.80;1.00;;;;;;2276858;61;1107;-86
2021/03/06 06:44:57;415082.00;1.38;715.73;92256.00;0.31;160.20;;;;;0.70;1.00;;;;;;2276788;61;1677;-86
2021/03/06 06:47:24;269490.00;0.90;465.47;92293.00;0.31;160.27;;;;;0.90;1.00;;;;;;2276744;61;1057;-87
2021/03/06 06:49:52;145328.00;0.48;251.76;96873.00;0.32;168.17;;;;;1.30;1.00;;;;;;2276703;61;1357;-86
2021/03/06 06:52:21;119374328.00;397.91;68909784.00;87359.00;0.29;151.75;;;;;1.50;1.00;;;;;;2276734;61;1524;-87
2021/03/06 06:54:52;238016.00;0.79;411.34;83863.00;0.28;145.71;;;;;1.40;1.00;;;;;;2276802;61;1125;-86
2021/03/06 06:57:19;305.00;0.00;1.15;0.00;0.00;0.62;;;;;1.30;1.00;;;;;;2276539;61;1993;-86
2021/03/06 06:59:58;16242.00;0.05;28.76;0.00;0.00;0.62;;;;;1.00;1.00;;;;;;2276698;61;1312;-86
2021/03/06 07:02:26;269908.00;0.90;466.19;90127.00;0.30;156.53;;;;;1.40;1.00;;;;;;2276732;61;979;-86
2021/03/06 07:04:54;179689.00;0.60;310.95;87700.00;0.29;152.34;;;;;1.70;1.00;;;;;;2276762;61;1060;-86
2021/03/06 07:07:23;209864.00;0.70;362.90;88955.00;0.30;154.50;;;;;2.00;1.00;;;;;;2276726;61;1152;-86
2021/03/06 07:09:58;192912.00;0.64;333.72;82969.00;0.28;144.17;;;;;2.00;1.00;;;;;;2276692;61;1369;-87
2021/03/06 07:12:26;334180.00;1.11;576.67;89510.00;0.30;155.46;;;;;2.00;1.00;;;;;;2276824;61;901;-86
2021/03/06 07:14:52;294155.00;0.98;507.87;86918.00;0.29;150.99;;;;;2.20;1.00;;;;;;2276717;61;1058;-85
2021/03/06 07:17:19;279225.00;0.93;482.21;86239.00;0.29;149.81;;;;;3.20;1.00;;;;;;2276677;61;1924;-86
2021/03/06 07:19:46;217815.00;0.73;376.58;86188.00;0.29;149.72;;;;;3.80;1.00;;;;;;2276714;61;1308;-86
2021/03/06 07:22:13;242374.00;0.81;418.83;84181.00;0.28;146.26;;;;;4.50;1.00;;;;;;2276646;61;1027;-87
2021/03/06 07:24:40;230639.00;0.77;398.65;84699.00;0.28;147.15;;;;;4.80;1.00;;;;;;2276701;61;1033;-86
2021/03/06 07:27:07;44059.00;0.15;76.91;0.00;0.00;0.62;;;;;4.60;1.00;;;;;;2276662;61;1122;-86
2021/03/06 07:29:33;50066.00;0.17;87.30;0.00;0.00;0.62;;;;;4.00;1.00;;;;;;2276670;61;1405;-86
2021/03/06 07:32:02;89276.00;0.30;155.06;0.00;0.00;0.62;;;;;3.50;1.00;;;;;;2276585;61;1147;-85
2021/03/06 07:34:32;85294.00;0.28;148.18;0.00;0.00;0.62;;;;;3.70;1.00;;;;;;2276592;61;979;-86
2021/03/06 07:37:03;209878.00;0.70;362.93;0.00;0.00;0.62;;;;;3.40;1.00;;;;;;2276566;61;1140;-86
2021/03/06 07:39:39;113449.00;0.38;196.78;0.00;0.00;0.62;;;;;3.20;1.00;;;;;;2276572;61;1939;-86
2021/03/06 07:42:15;311175.00;1.04;537.13;98338.00;0.33;170.70;;;;;2.90;1.00;;;;;;2276627;61;1055;-86
2021/03/06 07:44:44;248252.00;0.83;428.94;83057.00;0.28;144.32;;;;;2.70;1.00;;;;;;2276425;61;1005;-86
2021/03/06 07:47:13;210877.00;0.70;364.64;95040.00;0.32;165.01;;;;;2.50;1.00;;;;;;2276292;61;1521;-86
2021/03/06 07:49:42;239502.00;0.80;413.89;89872.00;0.30;156.09;;;;;2.50;1.00;;;;;;2276415;61;1311;-86
2021/03/06 07:52:10;257166.00;0.86;444.27;88210.00;0.29;153.22;;;;;2.50;1.00;;;;;;2276500;61;1069;-86
2021/03/06 07:54:38;167957.00;0.56;290.75;90812.00;0.30;157.71;;;;;2.60;1.00;;;;;;2276573;61;1145;-86
2021/03/06 07:57:05;292814.00;0.98;505.57;132413.00;0.44;229.49;;;;;2.70;1.00;;;;;;2276549;61;1064;-86
2021/03/06 07:59:49;164684.00;0.55;285.11;82233.00;0.27;142.89;;;;;2.70;1.00;;;;;;2276443;61;2009;-85
2021/03/06 08:02:32;558728.00;1.86;963.01;89837.00;0.30;156.03;;;;;3.20;1.00;;;;;;2276471;61;1061;-86
2021/03/06 08:04:59;290894.00;0.97;502.27;97988.00;0.33;170.10;;;;;3.40;1.00;;;;;;2276456;61;1116;-86
2021/03/06 08:07:45;45106.00;0.15;78.72;0.00;0.00;0.62;;;;;4.20;1.00;;;;;;2276452;61;1086;-87
2021/03/06 08:10:12;76512.00;0.26;133.01;0.00;0.00;0.62;;;;;4.50;1.00;;;;;;2276502;61;1587;-86
2021/03/06 08:12:39;54288.00;0.18;94.60;0.00;0.00;0.62;;;;;4.80;1.00;;;;;;2276492;61;1102;-85
2021/03/06 08:15:34;28265.00;0.09;49.58;0.00;0.00;0.62;;;;;4.80;1.00;;;;;;2276519;61;1033;-87
2021/03/06 08:18:02;26752.00;0.09;46.96;0.00;0.00;0.62;;;;;5.10;1.00;;;;;;2276420;61;1982;-86
2021/03/06 08:20:31;142815.00;0.48;247.42;0.00;0.00;0.62;;;;;5.80;1.00;;;;;;2276430;61;1720;-87
2021/03/06 08:23:23;0.00;0.00;0.62;0.00;0.00;0.62;;;;;6.00;1.00;;;;;;2276519;61;1070;-87
2021/03/06 08:26:05;91690.00;0.31;159.23;0.00;0.00;0.62;;;;;5.80;1.00;;;;;;2276470;61;1105;-86
2021/03/06 08:28:34;244015.00;0.81;421.66;95926.00;0.32;166.54;;;;;5.30;1.00;;;;;;2276340;61;1718;-88
2021/03/06 08:31:39;63203.00;0.21;110.01;0.00;0.00;0.62;;;;;5.30;1.00;;;;;;2276232;61;1027;-86
2021/03/06 08:34:30;404636.00;1.35;697.78;102052.00;0.34;177.11;;;;;5.70;1.00;;;;;;2275786;61;1348;-86
2021/03/06 08:37:42;242425.00;0.81;418.92;0.00;0.00;0.62;;;;;6.50;1.00;;;;;;2274736;61;1104;-87
2021/03/06 08:40:13;102783.00;0.34;178.38;0.00;0.00;0.62;;;;;7.20;1.00;;;;;;2276372;61;1447;-85
2021/03/06 08:42:42;25287.00;0.08;44.42;0.00;0.00;0.62;;;;;6.80;1.00;;;;;;2276315;61;913;-87
2021/03/06 08:45:11;95842.00;0.32;166.39;0.00;0.00;0.62;;;;;6.70;1.00;;;;;;2276242;61;1684;-85
2021/03/06 08:47:40;193016.00;0.64;333.90;0.00;0.00;0.62;;;;;6.80;1.00;;;;;;2276231;61;1008;-85
2021/03/06 08:50:09;16314.00;0.05;28.89;0.00;0.00;0.62;;;;;6.60;1.00;;;;;;2276245;61;1396;-85
2021/03/06 08:52:36;115623.00;0.39;200.53;0.00;0.00;0.62;;;;;6.70;1.00;;;;;;2276325;61;915;-85
2021/03/06 08:55:04;17673.00;0.06;31.24;0.00;0.00;0.62;;;;;6.10;1.00;;;;;;2276307;61;1086;-86
2021/03/06 08:57:34;15768.00;0.05;27.94;0.00;0.00;0.62;;;;;6.00;1.00;;;;;;2276249;61;1915;-85
2021/03/06 09:00:04;43265.00;0.14;75.54;0.00;0.00;0.62;;;;;6.10;1.00;;;;;;2276178;61;1488;-86
2021/03/06 09:02:32;68518.00;0.23;119.20;0.00;0.00;0.62;;;;;6.00;1.00;;;;;;2276171;61;1118;-87
2021/03/06 09:05:06;76323.00;0.25;132.69;0.00;0.00;0.62;;;;;6.30;1.00;;;;;;2276253;61;926;-85
2021/03/06 09:07:33;0.00;0.00;0.62;0.00;0.00;0.62;;;;;6.20;1.00;;;;;;2276202;61;1689;-86
2021/03/06 09:10:14;69531.00;0.23;120.95;0.00;0.00;0.62;;;;;5.90;1.00;;;;;;2276267;61;1268;-86
2021/03/06 09:12:43;73367.00;0.24;127.58;0.00;0.00;0.62;;;;;5.70;1.00;;;;;;2276285;61;1113;-85
2021/03/06 09:15:11;162241.00;0.54;280.90;0.00;0.00;0.62;;;;;5.40;1.00;;;;;;2276327;61;1028;-86
2021/03/06 09:17:38;170194.00;0.57;294.60;24574.00;0.08;43.19;;;;;5.30;1.00;;;;;;2276258;61;1996;-87
2021/03/06 09:20:05;124148.00;0.41;215.24;0.00;0.00;0.62;;;;;4.90;1.00;;;;;;2276457;61;1433;-85
2021/03/06 09:22:40;176422.00;0.59;305.33;0.00;0.00;0.62;;;;;5.00;1.00;;;;;;2276928;61;999;-85
2021/03/06 09:25:08;180121.00;0.60;311.70;0.00;0.00;0.62;;;;;5.40;1.00;;;;;;2276971;61;1553;-86
2021/03/06 09:27:44;10633.00;0.04;19.05;0.00;0.00;0.62;;;;;5.50;1.00;;;;;;2276991;61;1135;-86
2021/03/06 09:30:21;370139.00;1.23;638.48;57144.00;0.19;99.54;;;;;6.00;1.00;;;;;;2276948;61;1536;-87
2021/03/06 09:32:48;8781.00;0.03;15.84;0.00;0.00;0.62;;;;;6.60;1.00;;;;;;2276972;61;948;-86
2021/03/06 09:35:16;145044.00;0.48;251.27;0.00;0.00;0.62;;;;;6.20;1.00;;;;;;2276852;61;1591;-85
2021/03/06 09:37:42;80445.00;0.27;139.81;0.00;0.00;0.62;;;;;5.90;1.00;;;;;;2276918;61;1998;-87
2021/03/06 09:40:20;75093.00;0.25;130.56;0.00;0.00;0.62;;;;;6.00;1.00;;;;;;2276775;61;1206;-86
2021/03/06 09:42:50;92031.00;0.31;159.81;0.00;0.00;0.62;;;;;6.30;1.00;;;;;;2276878;61;1140;-87
2021/03/06 09:45:17;51234.00;0.17;89.32;0.00;0.00;0.62;;;;;6.70;1.00;;;;;;2276906;61;982;-87
2021/03/06 09:47:44;119625.00;0.40;207.44;0.00;0.00;0.62;;;;;7.00;1.00;;;;;;2276762;61;1259;-87
2021/03/06 11:37:24;97780.00;0.33;169.74;0.00;0.00;0.62;;;;;7.10;1.00;;;;;;2278599;61;1044;-85
2021/03/06 11:39:50;0.00;0.00;0.62;0.00;0.00;0.62;;;;;7.20;1.00;;;;;;2276516;61;1996;-86
2021/03/06 11:42:17;111538.00;0.37;193.48;0.00;0.00;0.62;;;;;7.00;1.00;;;;;;2276414;61;1039;-86
2021/03/06 11:44:43;73172.00;0.24;127.24;0.00;0.00;0.62;;;;;6.70;1.00;;;;;;2276496;61;1718;-87
2021/03/06 11:47:10;67138.00;0.22;116.81;0.00;0.00;0.62;;;;;6.60;1.00;;;;;;2276586;61;1094;-86